Time;durP1;ratioP1;P1;durP2;ratioP2;P2;SDS_P1;SDS_P2;PMS_P1;PMS_P2;Temp;Humidity;BMP_temperature;BMP_pressure;BME280_temperature;BME280_humidity;BME280_pressure;Samples;Min_cycle;Max_cycle;Signal;HPM_P1;HPM_P2
2024/03/12 00:01:09;;;;;;;11.88;4.82;;;;;;;;;;5011950;28;20108;-56
2024/03/12 00:03:57;;;;;;;13.80;4.45;;;;;;;;;;5008980;28;20056;-55
2024/03/12 00:06:50;;;;;;;11.52;4.35;;;;;;;;;;5012287;28;20088;-50
2024/03/12 00:09:37;;;;;;;13.98;5.15;;;;;;;;;;5013231;28;20128;-57
2024/03/12 00:12:31;;;;;;;11.50;4.75;;;;;;;;;;5010611;28;20519;-52
2024/03/12 00:15:22;;;;;;;10.25;4.57;;;;;;;;;;5006959;28;20064;-61
2024/03/12 00:18:05;;;;;;;14.77;4.43;;;;;;;;;;5009997;28;20049;-61
2024/03/12 00:20:52;;;;;;;10.35;4.65;;;;;;;;;;5014797;28;20054;-61
2024/03/12 00:23:46;;;;;;;10.77;4.45;;;;;;;;;;5014796;28;20170;-61
2024/03/12 00:26:33;;;;;;;8.90;4.45;;;;;;;;;;5013679;28;20552;-48
2024/03/12 00:29:26;;;;;;;9.43;4.38;;;;;;;;;;5014816;28;20062;-60
2024/03/12 00:32:17;;;;;;;11.07;4.97;;;;;;;;;;5010372;28;20128;-61
2024/03/12 00:35:11;;;;;;;12.15;4.57;;;;;;;;;;5010399;28;20053;-61
2024/03/12 00:37:58;;;;;;;11.13;4.82;;;;;;;;;;5011247;28;20057;-61
2024/03/12 00:40:52;;;;;;;14.13;5.70;;;;;;;;;;5016716;28;20462;-61
2024/03/12 00:43:45;;;;;;;12.18;4.95;;;;;;;;;;5015990;28;20045;-49
2024/03/12 00:46:40;;;;;;;11.55;4.93;;;;;;;;;;5015106;28;20075;-48
2024/03/12 00:49:27;;;;;;;14.38;4.32;;;;;;;;;;5016320;28;20458;-48
2024/03/12 00:52:24;;;;;;;11.95;4.93;;;;;;;;;;5016525;28;20074;-51
2024/03/12 00:55:20;;;;;;;12.55;4.72;;;;;;;;;;5013392;28;20053;-63
2024/03/12 00:58:12;;;;;;;12.73;4.57;;;;;;;;;;5014252;28;20049;-52
2024/03/12 01:01:06;;;;;;;10.73;4.68;;;;;;;;;;5017358;28;20045;-55
2024/03/12 01:04:03;;;;;;;11.50;4.50;;;;;;;;;;5015658;28;20141;-56
2024/03/12 01:06:55;;;;;;;13.80;5.15;;;;;;;;;;5014803;28;20057;-55
2024/03/12 01:09:48;;;;;;;11.82;4.60;;;;;;;;;;5017932;28;20076;-56
2024/03/12 01:12:43;;;;;;;13.80;4.63;;;;;;;;;;5013334;28;20049;-62
2024/03/12 01:15:38;;;;;;;12.10;4.68;;;;;;;;;;5009580;28;20049;-62
2024/03/12 01:18:25;;;;;;;18.05;5.75;;;;;;;;;;5016729;28;20049;-62
2024/03/12 01:21:20;;;;;;;15.80;4.85;;;;;;;;;;5017234;28;20141;-48
2024/03/12 01:24:07;;;;;;;10.27;4.13;;;;;;;;;;5014730;28;20065;-63
2024/03/12 01:27:01;;;;;;;8.35;4.07;;;;;;;;;;5021016;28;20370;-62
2024/03/12 01:29:49;;;;;;;12.05;4.85;;;;;;;;;;5015777;28;20945;-62
2024/03/12 01:32:45;;;;;;;13.30;5.13;;;;;;;;;;5016734;28;20081;-63
2024/03/12 01:35:37;;;;;;;15.82;4.80;;;;;;;;;;5013858;28;20057;-63
2024/03/12 01:38:27;;;;;;;10.32;5.03;;;;;;;;;;5017112;28;20045;-63
2024/03/12 01:41:15;;;;;;;13.73;5.10;;;;;;;;;;5018025;28;20076;-61
2024/03/12 01:44:22;;;;;;;9.25;4.30;;;;;;;;;;5012465;28;20423;-61
2024/03/12 01:47:20;;;;;;;15.88;5.13;;;;;;;;;;5014045;28;20054;-61
2024/03/12 01:50:17;;;;;;;10.00;4.55;;;;;;;;;;5015028;28;20321;-65
2024/03/12 01:53:10;;;;;;;13.50;5.10;;;;;;;;;;5012970;28;20041;-61
2024/03/12 01:55:57;;;;;;;12.13;4.97;;;;;;;;;;5013360;28;20179;-61
2024/03/12 01:58:51;;;;;;;11.20;4.10;;;;;;;;;;5015581;28;20404;-61
2024/03/12 02:01:38;;;;;;;10.67;4.17;;;;;;;;;;5013846;28;20081;-61
2024/03/12 02:04:32;;;;;;;10.32;4.15;;;;;;;;;;5015603;28;20053;-61
2024/03/12 02:07:19;;;;;;;11.07;4.68;;;;;;;;;;5008495;28;20049;-61
2024/03/12 02:10:14;;;;;;;13.60;5.10;;;;;;;;;;5016466;28;20462;-62
2024/03/12 02:13:01;;;;;;;17.42;4.75;;;;;;;;;;5016964;28;20950;-62
2024/03/12 02:15:56;;;;;;;17.77;4.82;;;;;;;;;;5012757;28;20518;-62
2024/03/12 02:18:42;;;;;;;8.80;4.53;;;;;;;;;;5016426;28;20045;-60
2024/03/12 02:21:36;;;;;;;10.27;4.30;;;;;;;;;;5016257;28;20052;-61
2024/03/12 02:24:24;;;;;;;9.27;4.35;;;;;;;;;;5015656;28;20526;-61
2024/03/12 02:27:18;;;;;;;12.27;4.70;;;;;;;;;;5017454;28;20184;-61
2024/03/12 02:30:11;;;;;;;15.27;4.85;;;;;;;;;;5016024;28;20636;-61
2024/03/12 02:32:59;;;;;;;11.48;4.05;;;;;;;;;;5013742;28;20112;-62
2024/03/12 02:35:55;;;;;;;17.13;4.78;;;;;;;;;;5013749;28;20068;-57
2024/03/12 02:38:42;;;;;;;15.73;4.55;;;;;;;;;;5012141;28;20049;-63
2024/03/12 02:41:36;;;;;;;9.90;4.03;;;;;;;;;;5014244;28;20073;-63
2024/03/12 02:44:30;;;;;;;14.93;4.65;;;;;;;;;;5010421;28;20097;-62
2024/03/12 02:47:23;;;;;;;12.75;4.20;;;;;;;;;;5010285;28;20115;-65
2024/03/12 02:50:11;;;;;;;9.07;4.13;;;;;;;;;;5010419;28;20141;-65
2024/03/12 02:53:06;;;;;;;11.43;4.43;;;;;;;;;;5009046;28;20087;-65
2024/03/12 02:55:52;;;;;;;12.02;4.25;;;;;;;;;;5009724;28;20050;-64
2024/03/12 02:58:47;;;;;;;11.23;4.53;;;;;;;;;;5007579;28;20145;-65
2024/03/12 03:01:33;;;;;;;11.68;3.58;;;;;;;;;;5008423;28;20061;-65
2024/03/12 03:04:28;;;;;;;8.25;4.20;;;;;;;;;;5008242;28;20050;-64
2024/03/12 03:07:16;;;;;;;8.68;4.00;;;;;;;;;;5009487;28;20068;-63
2024/03/12 03:10:09;;;;;;;15.80;4.35;;;;;;;;;;5009568;28;20057;-63
2024/03/12 03:12:56;;;;;;;10.85;4.07;;;;;;;;;;5009671;28;20115;-63
2024/03/12 03:15:51;;;;;;;9.25;4.28;;;;;;;;;;5011783;28;20057;-63
2024/03/12 03:18:37;;;;;;;13.35;5.20;;;;;;;;;;5013539;28;20057;-56
2024/03/12 03:21:32;;;;;;;11.02;4.32;;;;;;;;;;5011315;28;20069;-55
2024/03/12 03:24:19;;;;;;;8.52;4.82;;;;;;;;;;5008856;28;20077;-55
2024/03/12 03:27:13;;;;;;;12.02;4.68;;;;;;;;;;5014138;28;20046;-56
2024/03/12 03:30:01;;;;;;;12.80;4.55;;;;;;;;;;5012884;28;20045;-56
2024/03/12 03:32:54;;;;;;;13.30;4.43;;;;;;;;;;5008314;28;20057;-55
2024/03/12 03:35:42;;;;;;;8.82;4.20;;;;;;;;;;5012470;28;20084;-57
2024/03/12 03:38:40;;;;;;;14.43;4.45;;;;;;;;;;5008797;28;20053;-55
2024/03/12 03:41:22;;;;;;;14.18;4.63;;;;;;;;;;5009855;28;20049;-55
2024/03/12 03:44:23;;;;;;;11.00;4.47;;;;;;;;;;5014702;28;20116;-61
2024/03/12 03:47:10;;;;;;;16.10;4.78;;;;;;;;;;5014353;28;20061;-61
2024/03/12 03:50:08;;;;;;;13.15;4.93;;;;;;;;;;5007785;28;20053;-62
2024/03/12 03:52:55;;;;;;;20.10;5.05;;;;;;;;;;5014355;28;20050;-62
2024/03/12 03:55:49;;;;;;;12.18;4.93;;;;;;;;;;5012814;28;21152;-61
2024/03/12 03:58:36;;;;;;;13.50;4.45;;;;;;;;;;5011108;28;20529;-62
2024/03/12 04:01:30;;;;;;;10.68;4.70;;;;;;;;;;5011373;28;20569;-46
2024/03/12 04:04:18;;;;;;;12.48;4.70;;;;;;;;;;5011738;28;20690;-53
2024/03/12 04:07:11;;;;;;;11.40;5.25;;;;;;;;;;5012796;28;20126;-50
2024/03/12 04:09:59;;;;;;;11.68;5.15;;;;;;;;;;5011666;28;20050;-52
2024/03/12 04:12:55;;;;;;;14.10;4.45;;;;;;;;;;5018160;28;20053;-54
2024/03/12 04:15:40;;;;;;;14.18;4.93;;;;;;;;;;5019576;28;20057;-62
2024/03/12 04:18:44;;;;;;;9.63;4.57;;;;;;;;;;5018734;28;20054;-61
2024/03/12 04:21:28;;;;;;;12.48;4.53;;;;;;;;;;5018454;28;20140;-62
2024/03/12 04:24:01;;;;;;;11.23;4.72;;;;;;;;;;5015076;28;20535;-61
2024/03/12 04:26:56;;;;;;;11.20;4.85;;;;;;;;;;5010638;28;20495;-61
2024/03/12 04:29:46;;;;;;;11.43;4.80;;;;;;;;;;5016037;28;20495;-56
2024/03/12 04:32:40;;;;;;;9.85;4.57;;;;;;;;;;5019901;28;20503;-61
2024/03/12 04:35:27;;;;;;;10.93;4.47;;;;;;;;;;5012972;28;20116;-62
2024/03/12 04:38:20;;;;;;;9.52;4.32;;;;;;;;;;5014923;28;20131;-61
2024/03/12 04:41:09;;;;;;;12.13;4.60;;;;;;;;;;5013659;28;20057;-56
2024/03/12 04:44:08;;;;;;;12.50;4.82;;;;;;;;;;5016190;28;20374;-55
2024/03/12 04:46:55;;;;;;;13.30;4.45;;;;;;;;;;5011255;28;20053;-57
2024/03/12 04:49:49;;;;;;;9.38;4.05;;;;;;;;;;5013484;28;20057;-52
2024/03/12 04:52:36;;;;;;;12.73;4.65;;;;;;;;;;5016473;28;20507;-53
2024/03/12 04:55:34;;;;;;;16.55;4.93;;;;;;;;;;5009458;28;20057;-53
2024/03/12 04:58:21;;;;;;;8.35;4.03;;;;;;;;;;5014594;28;20058;-65
2024/03/12 05:01:15;;;;;;;11.88;4.18;;;;;;;;;;5016005;28;20526;-65
2024/03/12 05:04:03;;;;;;;13.68;4.72;;;;;;;;;;5013777;28;20112;-66
2024/03/12 05:06:56;;;;;;;10.00;4.18;;;;;;;;;;5016578;28;20483;-65
2024/03/12 05:09:44;;;;;;;13.30;4.97;;;;;;;;;;5019206;28;20049;-65
2024/03/12 05:12:41;;;;;;;13.65;4.72;;;;;;;;;;5017090;28;20057;-61
2024/03/12 05:15:28;;;;;;;10.07;3.92;;;;;;;;;;5014020;28;20061;-61
2024/03/12 05:18:22;;;;;;;12.13;4.45;;;;;;;;;;5016051;28;22227;-61
2024/03/12 05:21:08;;;;;;;8.88;4.13;;;;;;;;;;5013131;28;20057;-61
2024/03/12 05:24:03;;;;;;;11.32;4.25;;;;;;;;;;5009817;28;20061;-61
2024/03/12 05:26:50;;;;;;;9.32;4.13;;;;;;;;;;5013204;28;20054;-55
2024/03/12 05:29:43;;;;;;;11.20;4.35;;;;;;;;;;5012609;28;20077;-57
2024/03/12 05:32:31;;;;;;;19.42;5.60;;;;;;;;;;5012544;28;20072;-57
2024/03/12 05:35:29;;;;;;;10.50;4.47;;;;;;;;;;5011103;28;20426;-53
2024/03/12 05:38:12;;;;;;;15.82;4.78;;;;;;;;;;5010946;28;20716;-61
2024/03/12 05:48:07;;;;;;;10.18;4.75;;;;;;;;;;5004989;28;20098;-55
2024/03/12 05:49:39;;;;;;;16.60;4.88;;;;;;;;;;5007023;28;20053;-56
2024/03/12 05:52:33;;;;;;;10.38;4.65;;;;;;;;;;5011158;28;20068;-54
2024/03/12 05:55:21;;;;;;;13.55;4.40;;;;;;;;;;5010234;28;20058;-52
2024/03/12 05:58:15;;;;;;;13.88;4.95;;;;;;;;;;5013478;28;20136;-51
2024/03/12 06:01:03;;;;;;;12.68;4.85;;;;;;;;;;5014050;28;20057;-66
2024/03/12 06:03:56;;;;;;;12.85;4.75;;;;;;;;;;5005174;28;20046;-65
2024/03/12 06:06:51;;;;;;;11.57;4.13;;;;;;;;;;5010558;28;20188;-64
2024/03/12 06:09:38;;;;;;;10.85;4.50;;;;;;;;;;5017349;28;20430;-65
2024/03/12 06:12:31;;;;;;;13.40;4.45;;;;;;;;;;5015922;28;20061;-65
2024/03/12 06:15:19;;;;;;;11.30;5.05;;;;;;;;;;5014855;28;20597;-56
2024/03/12 06:18:13;;;;;;;9.57;4.50;;;;;;;;;;5016612;28;20056;-61
2024/03/12 06:21:00;;;;;;;10.27;4.60;;;;;;;;;;5013931;28;20057;-61
2024/03/12 06:23:54;;;;;;;13.13;4.35;;;;;;;;;;5015695;28;20092;-61
2024/03/12 06:26:49;;;;;;;10.82;4.32;;;;;;;;;;5013134;28;20511;-61
2024/03/12 06:29:43;;;;;;;12.88;4.95;;;;;;;;;;5011809;28;20050;-61
2024/03/12 06:32:31;;;;;;;14.82;4.47;;;;;;;;;;5012894;28;20057;-62
2024/03/12 06:35:24;;;;;;;12.55;4.10;;;;;;;;;;5013630;28;20050;-61
2024/03/12 06:38:20;;;;;;;11.23;5.20;;;;;;;;;;5013760;28;20124;-61
2024/03/12 06:41:07;;;;;;;11.05;4.72;;;;;;;;;;5016741;28;20056;-61
2024/03/12 06:44:09;;;;;;;9.80;4.10;;;;;;;;;;5014717;28;20093;-56
2024/03/12 06:47:00;;;;;;;16.65;5.78;;;;;;;;;;5013501;28;20427;-52
2024/03/12 06:49:54;;;;;;;10.18;4.88;;;;;;;;;;5012077;28;20057;-48
2024/03/12 06:52:47;;;;;;;13.80;4.60;;;;;;;;;;5013608;28;20057;-49
2024/03/12 06:55:35;;;;;;;11.45;4.65;;;;;;;;;;5014684;28;20506;-51
2024/03/12 06:58:25;;;;;;;12.45;4.68;;;;;;;;;;5013337;28;20062;-52
2024/03/12 07:01:19;;;;;;;14.00;4.20;;;;;;;;;;5016123;28;20053;-54
2024/03/12 07:04:06;;;;;;;9.82;4.75;;;;;;;;;;5013822;28;20057;-57
2024/03/12 07:06:57;;;;;;;9.07;4.13;;;;;;;;;;5015543;28;20045;-55
2024/03/12 07:09:45;;;;;;;14.45;4.95;;;;;;;;;;5016099;28;20566;-56
2024/03/12 07:12:39;;;;;;;12.48;4.82;;;;;;;;;;5016801;28;20130;-55
2024/03/12 07:15:28;;;;;;;12.65;4.32;;;;;;;;;;5015202;28;20053;-62
2024/03/12 07:18:23;;;;;;;11.23;4.38;;;;;;;;;;5012634;28;20049;-63
2024/03/12 07:21:09;;;;;;;8.18;4.53;;;;;;;;;;5014693;28;20081;-63
2024/03/12 07:24:04;;;;;;;16.15;4.35;;;;;;;;;;5012183;28;20507;-63
2024/03/12 07:26:50;;;;;;;9.77;4.88;;;;;;;;;;5013250;28;20127;-63
2024/03/12 07:29:43;;;;;;;9.30;4.20;;;;;;;;;;5013929;28;20608;-53
2024/03/12 07:32:31;;;;;;;8.00;4.10;;;;;;;;;;5014618;28;20061;-56
2024/03/12 07:35:24;;;;;;;12.00;3.95;;;;;;;;;;5013534;28;20053;-56
2024/03/12 07:38:12;;;;;;;10.30;4.57;;;;;;;;;;5015116;28;20198;-55
2024/03/12 07:41:08;;;;;;;12.38;4.05;;;;;;;;;;5011876;28;20071;-61
2024/03/12 07:44:00;;;;;;;10.80;4.20;;;;;;;;;;5020596;28;20494;-65
2024/03/12 07:46:54;;;;;;;8.68;4.43;;;;;;;;;;5031336;28;20061;-65
2024/03/12 07:49:47;;;;;;;10.25;4.47;;;;;;;;;;5031875;28;20103;-64
2024/03/12 07:52:41;;;;;;;12.23;4.07;;;;;;;;;;5034571;28;20246;-65
2024/03/12 07:55:28;;;;;;;9.57;4.13;;;;;;;;;;5032062;28;20057;-66
2024/03/12 07:58:28;;;;;;;8.95;4.38;;;;;;;;;;5034907;28;20053;-54
2024/03/12 08:01:14;;;;;;;10.63;3.95;;;;;;;;;;5036693;28;20061;-54
2024/03/12 08:04:07;;;;;;;16.85;5.05;;;;;;;;;;5034778;28;20545;-55
2024/03/12 08:06:56;;;;;;;9.90;4.40;;;;;;;;;;5035808;28;20045;-54
2024/03/12 08:09:49;;;;;;;11.40;4.32;;;;;;;;;;5033450;28;20111;-54
2024/03/12 08:12:39;;;;;;;11.63;4.00;;;;;;;;;;5035456;28;20057;-61
2024/03/12 08:15:30;;;;;;;13.93;3.97;;;;;;;;;;5032729;28;20045;-61
2024/03/12 08:18:18;;;;;;;12.75;4.88;;;;;;;;;;5035780;28;20164;-61
2024/03/12 08:21:11;;;;;;;16.35;5.10;;;;;;;;;;5034177;28;20056;-61
2024/03/12 08:23:59;;;;;;;8.45;4.10;;;;;;;;;;5032728;28;20059;-62
2024/03/12 08:26:54;;;;;;;9.10;3.90;;;;;;;;;;5034490;28;20071;-62
2024/03/12 08:29:40;;;;;;;10.57;3.80;;;;;;;;;;5030979;28;20049;-62
2024/03/12 08:32:35;;;;;;;10.98;3.78;;;;;;;;;;5033218;28;20053;-62
2024/03/12 08:35:21;;;;;;;10.27;4.00;;;;;;;;;;5033049;28;20054;-62
2024/03/12 08:38:14;;;;;;;13.77;3.90;;;;;;;;;;5033491;28;20122;-66
2024/03/12 08:41:01;;;;;;;12.77;3.60;;;;;;;;;;5029858;28;20065;-61
2024/03/12 08:44:09;;;;;;;7.75;3.47;;;;;;;;;;5025783;28;20430;-61
2024/03/12 08:47:02;;;;;;;11.90;4.30;;;;;;;;;;5014740;28;20049;-61
2024/03/12 08:49:56;;;;;;;9.80;3.70;;;;;;;;;;5014123;28;20053;-61
2024/03/12 08:52:44;;;;;;;8.88;4.30;;;;;;;;;;5012799;28;20183;-61
2024/03/12 08:55:41;;;;;;;9.93;3.92;;;;;;;;;;5014305;28;20053;-66
2024/03/12 08:58:29;;;;;;;9.25;3.58;;;;;;;;;;5016732;28;20836;-65
2024/03/12 09:01:23;;;;;;;8.88;4.10;;;;;;;;;;5018392;28;20077;-66
2024/03/12 09:04:16;;;;;;;8.90;3.40;;;;;;;;;;5017156;28;20108;-54
2024/03/12 09:07:11;;;;;;;10.35;4.07;;;;;;;;;;5018326;28;20053;-61
2024/03/12 09:09:58;;;;;;;8.85;3.72;;;;;;;;;;5017270;28;20050;-51
2024/03/12 09:12:51;;;;;;;8.82;3.58;;;;;;;;;;5014061;28;20050;-51
2024/03/12 09:15:41;;;;;;;8.38;3.05;;;;;;;;;;5016910;28;20218;-49
2024/03/12 09:18:34;;;;;;;11.00;3.63;;;;;;;;;;5014991;28;20055;-48
2024/03/12 09:21:34;;;;;;;6.28;3.47;;;;;;;;;;5014341;28;20064;-47
2024/03/12 09:24:28;;;;;;;11.85;3.70;;;;;;;;;;5016256;28;20515;-57
2024/03/12 09:27:15;;;;;;;6.82;3.33;;;;;;;;;;5016605;28;20137;-56
2024/03/12 09:30:10;;;;;;;8.13;4.05;;;;;;;;;;5013031;28;20061;-54
2024/03/12 09:32:56;;;;;;;9.00;3.42;;;;;;;;;;5015241;28;20057;-65
2024/03/12 09:35:50;;;;;;;9.05;3.45;;;;;;;;;;5014512;28;20049;-62
2024/03/12 09:38:37;;;;;;;8.07;3.33;;;;;;;;;;5015437;28;20100;-56
2024/03/12 09:41:30;;;;;;;7.60;3.85;;;;;;;;;;5014898;28;20115;-57
2024/03/12 09:44:25;;;;;;;6.88;3.38;;;;;;;;;;5016242;28;20873;-59
2024/03/12 09:47:20;;;;;;;9.13;4.10;;;;;;;;;;5016528;28;20049;-56
2024/03/12 09:50:11;;;;;;;8.88;3.92;;;;;;;;;;5016374;28;20045;-56
2024/03/12 09:53:02;;;;;;;8.50;3.92;;;;;;;;;;5017020;28;20574;-58
2024/03/12 09:55:49;;;;;;;6.45;3.50;;;;;;;;;;5015181;28;20045;-58
2024/03/12 09:58:44;;;;;;;10.00;3.97;;;;;;;;;;5017792;28;20092;-59
2024/03/12 10:01:31;;;;;;;6.57;3.05;;;;;;;;;;5015526;28;20423;-48
2024/03/12 10:04:26;;;;;;;12.90;4.70;;;;;;;;;;5015822;28;20141;-62
2024/03/12 10:07:12;;;;;;;9.82;3.42;;;;;;;;;;5015917;28;20152;-62
2024/03/12 10:10:09;;;;;;;11.90;3.63;;;;;;;;;;5015262;28;20050;-62
2024/03/12 10:12:55;;;;;;;8.60;3.95;;;;;;;;;;5017115;28;20504;-62
2024/03/12 10:15:50;;;;;;;9.07;3.47;;;;;;;;;;5011756;28;20041;-62
2024/03/12 10:18:38;;;;;;;8.43;3.60;;;;;;;;;;5016297;28;20552;-62
2024/03/12 10:21:33;;;;;;;7.95;3.25;;;;;;;;;;5013803;28;20644;-57
2024/03/12 10:24:25;;;;;;;10.20;4.25;;;;;;;;;;5013641;28;20084;-57
2024/03/12 10:27:18;;;;;;;10.73;4.35;;;;;;;;;;5015414;28;20045;-58
2024/03/12 10:30:04;;;;;;;9.73;3.83;;;;;;;;;;5013523;28;20057;-62
2024/03/12 10:32:59;;;;;;;8.98;3.95;;;;;;;;;;5014682;28;20502;-64
2024/03/12 10:35:52;;;;;;;10.10;3.65;;;;;;;;;;5010585;28;20099;-64
2024/03/12 10:38:49;;;;;;;10.35;3.88;;;;;;;;;;5013260;28;20107;-64
2024/03/12 10:41:34;;;;;;;9.35;3.90;;;;;;;;;;5012965;28;20415;-64
2024/03/12 10:44:38;;;;;;;10.10;4.25;;;;;;;;;;5013933;28;20049;-64
2024/03/12 10:47:23;;;;;;;5.88;2.83;;;;;;;;;;5009699;28;20077;-64
2024/03/12 10:50:17;;;;;;;9.85;3.80;;;;;;;;;;5018366;28;20502;-48
2024/03/12 10:53:07;;;;;;;14.15;4.13;;;;;;;;;;5017129;28;20568;-52
2024/03/12 10:55:58;;;;;;;14.13;3.85;;;;;;;;;;5018830;28;20054;-48
2024/03/12 10:58:54;;;;;;;6.07;2.63;;;;;;;;;;5014801;28;20493;-59
2024/03/12 11:01:42;;;;;;;11.73;3.92;;;;;;;;;;5015859;28;20057;-65
2024/03/12 11:04:35;;;;;;;7.55;4.15;;;;;;;;;;5017350;28;20045;-65
2024/03/12 11:07:31;;;;;;;5.20;3.15;;;;;;;;;;5016096;28;20053;-65
2024/03/12 11:10:19;;;;;;;7.55;3.72;;;;;;;;;;5019100;28;20056;-66
2024/03/12 11:13:15;;;;;;;9.65;3.95;;;;;;;;;;5015197;28;20512;-66
2024/03/12 11:16:15;;;;;;;5.13;3.60;;;;;;;;;;5013310;28;20042;-65
2024/03/12 11:19:18;;;;;;;8.38;4.13;;;;;;;;;;5012366;28;20486;-62
2024/03/12 11:22:11;;;;;;;8.30;4.00;;;;;;;;;;5013734;28;20049;-63
2024/03/12 11:24:58;;;;;;;8.10;4.22;;;;;;;;;;5012861;28;20057;-62
2024/03/12 11:28:11;;;;;;;10.27;4.30;;;;;;;;;;5014616;28;20103;-64
2024/03/12 11:30:59;;;;;;;11.27;3.70;;;;;;;;;;5013601;28;20053;-62
2024/03/12 11:33:54;;;;;;;9.90;4.10;;;;;;;;;;5011524;28;20108;-63
2024/03/12 11:36:48;;;;;;;8.88;4.07;;;;;;;;;;5013913;28;20049;-63
2024/03/12 11:39:41;;;;;;;6.82;4.10;;;;;;;;;;5013370;28;20046;-63
2024/03/12 11:42:30;;;;;;;6.63;3.35;;;;;;;;;;5012048;28;20510;-62
2024/03/12 11:45:34;;;;;;;14.35;3.92;;;;;;;;;;5013852;28;20065;-52
2024/03/12 11:48:32;;;;;;;9.02;3.88;;;;;;;;;;5013263;28;20096;-48
2024/03/12 11:51:58;;;;;;;7.20;3.67;;;;;;;;;;4997687;28;20111;-53
2024/03/12 11:54:52;;;;;;;9.65;3.80;;;;;;;;;;5009805;28;20053;-49
2024/03/12 11:57:48;;;;;;;7.60;3.40;;;;;;;;;;5014771;28;20066;-58
2024/03/12 12:00:38;;;;;;;11.95;5.13;;;;;;;;;;5010882;28;20093;-65
2024/03/12 12:03:29;;;;;;;8.00;4.20;;;;;;;;;;5013584;28;20311;-65
2024/03/12 12:06:19;;;;;;;8.05;4.25;;;;;;;;;;5011535;28;20053;-65
2024/03/12 12:09:10;;;;;;;7.75;4.18;;;;;;;;;;5011836;28;20049;-65
2024/03/12 12:11:58;;;;;;;11.88;3.90;;;;;;;;;;5012088;28;20042;-65
2024/03/12 12:14:53;;;;;;;7.05;3.70;;;;;;;;;;5011206;28;20576;-64
2024/03/12 12:17:40;;;;;;;12.82;4.40;;;;;;;;;;5012453;28;20274;-64
2024/03/12 12:20:34;;;;;;;7.57;3.70;;;;;;;;;;5013673;28;20050;-66
2024/03/12 12:23:22;;;;;;;10.63;4.30;;;;;;;;;;5014461;28;20045;-55
2024/03/12 12:26:16;;;;;;;10.50;4.38;;;;;;;;;;5013531;28;20849;-50
2024/03/12 12:29:04;;;;;;;10.20;4.30;;;;;;;;;;5014178;28;20050;-63
2024/03/12 12:31:57;;;;;;;10.25;4.35;;;;;;;;;;5014877;28;20795;-62
2024/03/12 12:34:45;;;;;;;10.07;3.97;;;;;;;;;;5015481;28;20089;-63
2024/03/12 12:37:40;;;;;;;7.95;4.40;;;;;;;;;;5019589;28;20057;-63
2024/03/12 12:40:27;;;;;;;;;;;;;;;;;;5014441;28;20108;-63
2024/03/12 12:43:21;;;;;;;10.25;3.53;;;;;;;;;;5018864;28;20912;-65
2024/03/12 12:46:25;;;;;;;8.02;3.80;;;;;;;;;;5018100;28;20053;-65
2024/03/12 12:49:13;;;;;;;8.07;3.72;;;;;;;;;;5020630;28;20052;-65
2024/03/12 12:52:04;;;;;;;10.80;4.28;;;;;;;;;;5017933;28;20181;-56
2024/03/12 12:54:59;;;;;;;7.85;3.72;;;;;;;;;;5019804;28;20045;-62
2024/03/12 12:57:46;;;;;;;8.18;4.32;;;;;;;;;;5019442;28;20065;-62
2024/03/12 13:00:41;;;;;;;9.88;4.18;;;;;;;;;;5016451;28;20054;-63
2024/03/12 13:03:27;;;;;;;8.35;3.80;;;;;;;;;;5019654;28;20073;-62
2024/03/12 13:06:22;;;;;;;11.18;4.13;;;;;;;;;;5018129;28;20041;-62
2024/03/12 13:09:10;;;;;;;7.63;4.15;;;;;;;;;;5019901;28;20050;-62
2024/03/12 13:12:09;;;;;;;9.25;4.00;;;;;;;;;;5018327;28;20148;-58
2024/03/12 13:15:01;;;;;;;6.13;4.05;;;;;;;;;;5016614;28;20053;-59
2024/03/12 13:17:50;;;;;;;10.95;4.05;;;;;;;;;;5017864;28;20469;-58
2024/03/12 13:20:42;;;;;;;7.57;4.32;;;;;;;;;;5015350;28;20408;-57
2024/03/12 13:23:30;;;;;;;9.73;3.80;;;;;;;;;;5018500;28;20054;-52
2024/03/12 13:26:23;;;;;;;13.70;4.82;;;;;;;;;;5019550;28;20068;-63
2024/03/12 13:29:10;;;;;;;8.35;4.10;;;;;;;;;;5022227;28;20065;-62
2024/03/12 13:32:05;;;;;;;8.82;4.38;;;;;;;;;;5018542;28;20045;-62
2024/03/12 13:34:58;;;;;;;7.90;4.35;;;;;;;;;;5018680;28;20056;-63
2024/03/12 13:37:46;;;;;;;9.75;4.60;;;;;;;;;;5022425;28;20061;-62
2024/03/12 13:40:40;;;;;;;8.35;4.07;;;;;;;;;;5018731;28;20465;-65
2024/03/12 13:43:33;;;;;;;11.65;4.38;;;;;;;;;;5016091;28;20069;-64
2024/03/12 13:46:35;;;;;;;8.15;4.35;;;;;;;;;;5015133;28;20053;-65
2024/03/12 13:49:28;;;;;;;13.32;4.65;;;;;;;;;;5015725;28;20403;-53
2024/03/12 13:52:16;;;;;;;5.57;3.85;;;;;;;;;;5012960;28;20247;-65
2024/03/12 13:55:11;;;;;;;9.50;4.30;;;;;;;;;;5015577;28;20145;-66
2024/03/12 13:57:57;;;;;;;9.88;4.35;;;;;;;;;;5016736;28;20069;-66
2024/03/12 14:00:51;;;;;;;8.50;4.47;;;;;;;;;;5014800;28;20111;-65
2024/03/12 14:03:39;;;;;;;9.85;4.25;;;;;;;;;;5014554;28;20092;-65
2024/03/12 14:06:33;;;;;;;8.90;4.30;;;;;;;;;;5013449;28;20141;-65
2024/03/12 14:09:21;;;;;;;8.73;4.18;;;;;;;;;;5018360;28;20065;-52
2024/03/12 14:12:14;;;;;;;7.53;3.97;;;;;;;;;;5013626;28;20715;-51
2024/03/12 14:15:01;;;;;;;10.85;4.65;;;;;;;;;;5015390;28;20464;-50
2024/03/12 14:17:54;;;;;;;9.52;4.88;;;;;;;;;;5016025;28;20061;-62
2024/03/12 14:20:45;;;;;;;9.20;4.38;;;;;;;;;;5016113;28;20065;-54
2024/03/12 14:23:38;;;;;;;7.95;4.10;;;;;;;;;;5016562;28;20115;-51
2024/03/12 14:26:33;;;;;;;9.25;4.00;;;;;;;;;;5014461;28;20053;-52
2024/03/12 14:29:19;;;;;;;12.25;4.80;;;;;;;;;;5020425;28;20053;-49
2024/03/12 14:32:13;;;;;;;12.27;4.60;;;;;;;;;;5018640;28;20312;-51
2024/03/12 14:35:01;;;;;;;12.90;5.22;;;;;;;;;;5014245;28;20053;-50
2024/03/12 14:37:57;;;;;;;11.32;4.95;;;;;;;;;;5015384;28;20068;-48
2024/03/12 14:40:42;;;;;;;11.52;4.85;;;;;;;;;;5012125;28;20513;-49
2024/03/12 14:43:35;;;;;;;8.90;4.63;;;;;;;;;;5014700;28;20049;-53
2024/03/12 14:46:29;;;;;;;9.65;4.85;;;;;;;;;;5013884;28;20049;-58
2024/03/12 14:49:22;;;;;;;12.27;4.78;;;;;;;;;;5015937;28;20050;-62
2024/03/12 14:52:10;;;;;;;12.35;4.60;;;;;;;;;;5013965;28;20050;-62
2024/03/12 14:55:04;;;;;;;14.20;5.28;;;;;;;;;;5014399;28;20054;-62
2024/03/12 14:57:57;;;;;;;9.40;4.38;;;;;;;;;;5016608;28;20081;-62
2024/03/12 15:00:45;;;;;;;8.50;4.80;;;;;;;;;;5012363;28;20053;-62
2024/03/12 15:03:38;;;;;;;10.95;4.60;;;;;;;;;;5015555;28;20139;-62
2024/03/12 15:06:27;;;;;;;8.48;4.63;;;;;;;;;;5014149;28;20054;-51
2024/03/12 15:09:21;;;;;;;7.13;4.38;;;;;;;;;;5014585;28;20171;-50
2024/03/12 15:12:08;;;;;;;10.32;4.80;;;;;;;;;;5013660;28;20077;-49
2024/03/12 15:15:01;;;;;;;10.85;5.10;;;;;;;;;;5015767;28;20053;-62
2024/03/12 15:17:55;;;;;;;11.50;4.80;;;;;;;;;;5015414;28;20129;-62
2024/03/12 15:20:46;;;;;;;9.63;4.30;;;;;;;;;;5008350;28;20132;-62
2024/03/12 15:23:36;;;;;;;8.63;4.60;;;;;;;;;;5015593;28;20141;-62
2024/03/12 15:26:24;;;;;;;8.32;4.20;;;;;;;;;;5010435;28;20065;-62
2024/03/12 15:29:18;;;;;;;9.05;4.75;;;;;;;;;;5015001;28;20073;-63
2024/03/12 15:32:05;;;;;;;12.40;5.10;;;;;;;;;;5012232;28;20131;-62
2024/03/12 15:34:58;;;;;;;8.43;4.70;;;;;;;;;;5012922;28;20050;-52
2024/03/12 15:37:54;;;;;;;7.57;4.47;;;;;;;;;;5014272;28;20057;-48
2024/03/12 15:40:46;;;;;;;10.05;4.55;;;;;;;;;;5012405;28;20061;-49
2024/03/12 15:43:34;;;;;;;11.48;5.63;;;;;;;;;;5010354;28;20530;-50
2024/03/12 15:46:34;;;;;;;8.48;5.10;;;;;;;;;;5011190;28;20478;-51
2024/03/12 15:49:21;;;;;;;7.80;5.00;;;;;;;;;;5010335;28;20053;-52
2024/03/12 15:52:15;;;;;;;9.43;4.25;;;;;;;;;;5010698;28;20062;-62
2024/03/12 15:55:03;;;;;;;8.18;4.18;;;;;;;;;;5008615;28;20049;-62
2024/03/12 15:57:58;;;;;;;7.60;4.43;;;;;;;;;;5009119;28;20593;-62
2024/03/12 16:00:44;;;;;;;12.13;4.68;;;;;;;;;;5008198;28;20089;-62
2024/03/12 16:03:38;;;;;;;10.65;4.65;;;;;;;;;;5010869;28;20065;-46
2024/03/12 16:06:25;;;;;;;8.60;4.80;;;;;;;;;;5013129;28;20049;-54
2024/03/12 16:09:20;;;;;;;12.35;4.40;;;;;;;;;;5013547;28;20151;-52
2024/03/12 16:12:08;;;;;;;12.60;4.30;;;;;;;;;;5012732;28;21377;-55
2024/03/12 16:15:02;;;;;;;8.90;4.88;;;;;;;;;;5012023;28;20476;-55
2024/03/12 16:17:49;;;;;;;11.05;4.20;;;;;;;;;;5017254;28;20053;-54
2024/03/12 16:20:42;;;;;;;9.85;4.30;;;;;;;;;;5018632;28;20064;-61
2024/03/12 16:23:30;;;;;;;11.75;4.47;;;;;;;;;;5018100;28;20112;-62
2024/03/12 16:26:23;;;;;;;10.68;4.82;;;;;;;;;;5015409;28;20065;-62
2024/03/12 16:29:20;;;;;;;7.90;4.72;;;;;;;;;;5016676;28;20135;-62
2024/03/12 16:32:10;;;;;;;8.98;4.30;;;;;;;;;;5014229;28;20062;-62
2024/03/12 16:35:03;;;;;;;9.95;4.18;;;;;;;;;;5013042;28;20483;-62
2024/03/12 16:37:48;;;;;;;11.48;4.45;;;;;;;;;;5013984;28;20416;-57
2024/03/12 16:40:43;;;;;;;9.00;4.47;;;;;;;;;;5011888;28;20053;-55
2024/03/12 16:43:30;;;;;;;9.95;3.70;;;;;;;;;;5013167;28;20057;-56
2024/03/12 16:46:31;;;;;;;9.82;3.80;;;;;;;;;;5028392;28;20061;-58
2024/03/12 16:49:17;;;;;;;9.07;4.05;;;;;;;;;;5033146;28;20906;-51
2024/03/12 16:52:11;;;;;;;9.10;4.00;;;;;;;;;;5030984;28;20514;-62
2024/03/12 16:54:59;;;;;;;13.13;4.55;;;;;;;;;;5033564;28;20107;-61
2024/03/12 16:57:53;;;;;;;10.43;4.43;;;;;;;;;;5033830;28;20045;-61
2024/03/12 17:00:44;;;;;;;9.05;3.75;;;;;;;;;;5030339;28;20609;-61
2024/03/12 17:03:38;;;;;;;11.77;4.10;;;;;;;;;;5032928;28;20057;-61
2024/03/12 17:06:26;;;;;;;9.23;4.40;;;;;;;;;;5035281;28;20139;-48